LGTS - Thessaloniki/Mik, Greece
Distance from station: 15km
: 21/07/2024 23:20
Clear
Clear
   varies
: varies 6 km/h
: 31°C
Heat Index: 34°C
: 21°C
: 55%
: 1006 hPa
: Clear
Visibility: greater than 10 km
2024/07/21 20:20 LGTS 212020Z VRB03KT CAVOK 31/21 Q1006 NOSIG
LGKZ - Kozani (civ/Army, Greece
Distance from station: 113km
: 21/07/2024 23:20


: 9 km/h
: 29°C
: 11°C
: 33%
: 1011 hPa
2024/07/21 20:20 LGKZ 212020Z AUTO 26005KT //// // ////// 29/11 Q1011 RE//
 
LGKV - Kavala/Chrisoupo, Greece
Distance from station: 132km
: 21/07/2024 21:50
NOT Current
Few Clouds
Few Clouds
   calm
:
: 26°C
: 21°C
: 74%
: 1006 hPa
Clouds: Few Clouds
Visibility: 10 km
Cloud details: Few Clouds 762 m
2024/07/21 18:50 LGKV 211850Z 00000KT 9999 FEW025 26/21 Q1006
LGBL - Nea Anchialos, Greece
Distance from station: 156km
: 21/07/2024 22:50
Clear
Clear
   calm
:
: 28°C
Heat Index: 31°C
: 23°C
: 74%
: 1006 hPa
: Clear
Visibility: greater than 10 km
2024/07/21 19:50 LGBL 211950Z 00000KT CAVOK 28/23 Q1006
 
LGSK - Skiathos Island, Greece
Distance from station: 161km
: 21/07/2024 23:20
Clear
Clear

: 9 km/h
: 28°C
Heat Index: 30°C
: 22°C
: 70%
: 1005 hPa
: Clear
Visibility: greater than 10 km
2024/07/21 20:20 LGSK 212020Z 18005KT CAVOK 28/22 Q1005
LWSK - Skopje/Petrovac, Macedonia
Distance from station: 195km
: 21/07/2024 22:50
Few Clouds
Few Clouds

: 17 km/h
: 30°C
Heat Index: 31°C
: 19°C
: 52%
: 1008 hPa
Clouds: Few Clouds
Visibility: 10 km
Cloud details: Few Clouds 1829 m
2024/07/21 19:50 LWSK 211950Z 35009KT 300V030 9999 FEW060 30/19 Q1008 NOSIG
 
LGLM - Limnos Island Ar, Greece
Distance from station: 196km
: 21/07/2024 23:20
Clear
Clear
   varies
: varies 2 km/h
: 26°C
: 18°C
: 61%
: 1006 hPa
: Clear
Visibility: greater than 10 km
2024/07/21 20:20 LGLM 212020Z VRB01KT CAVOK 26/18 Q1006
LWOH - Ohrid, Macedonia
Distance from station: 202km
: 21/07/2024 23:20
Clear
Clear
   varies
: varies 2 km/h
: 22°C
: 16°C
: 69%
: 1013 hPa
: Clear
Visibility: greater than 10 km
2024/07/21 20:20 LWOH 212020Z VRB01KT CAVOK 22/16 Q1013
 
LGSY - Skiros, Greece
Distance from station: 217km
: 21/07/2024 20:50
NOT Current
Clear
Clear
   varies
: varies 4 km/h
: 30°C
: 14°C
: 38%
: 1005 hPa
: Clear
Visibility: greater than 10 km
2024/07/21 17:50 LGSY 211750Z VRB02KT CAVOK 30/14 Q1005 BLU
LGIO - Ioannina, Greece
Distance from station: 218km
: 21/07/2024 23:20
Few Clouds
Few Clouds
   calm
:
: 25°C
: 17°C
: 61%
: 1012 hPa
Clouds: Few Clouds
Visibility: 10 km
Cloud details: Few Clouds 1219 m
2024/07/21 20:20 LGIO 212020Z 00000KT 9999 FEW040 25/17 Q1012
 
LBPD - Plovdiv, Bulgaria
Distance from station: 222km
: 21/07/2024 23:30
Clear
Clear

: 9 km/h
: 24°C
: 17°C
: 65%
: 1008 hPa
Clouds: Clear
Visibility: 10 km
2024/07/21 20:30 LBPD 212030Z AUTO 29005KT 9999 NCD 24/17 Q1008
LBSF - Sofia (observato, Bulgaria
Distance from station: 229km
: 21/07/2024 23:30
Few Clouds
Few Clouds
   calm
:
: 23°C
: 19°C
: 78%
: 1011 hPa
Clouds: Few Clouds
Visibility: 10 km
Cloud details: Few Clouds 2652 m
2024/07/21 20:30 LBSF 212030Z AUTO 00000KT 9999 FEW087/// 23/19 Q1011 NOSIG
 
LGAL - Alexandroupolis, Greece
Distance from station: 242km
: 21/07/2024 23:20
Clear
Clear
   calm
:
: 29°C
Heat Index: 31°C
: 20°C
: 58%
: 1006 hPa
: Clear
Visibility: greater than 10 km
2024/07/21 20:20 LGAL 212020Z 00000KT CAVOK 29/20 Q1006
LGPZ - Preveza/Aktion, Greece
Distance from station: 274km
: 21/07/2024 22:50
Clear
Clear

: 20 km/h
: 28°C
Heat Index: 33°C
: 26°C
: 89%
: 1008 hPa
: Clear
Visibility: greater than 10 km
2024/07/21 19:50 LGPZ 211950Z 26011KT CAVOK 28/26 Q1008
 
BKPR - Prishtina, Yugoslavia
Distance from station: 280km
: 21/07/2024 23:30
Clear
Clear

: 15 km/h
: 23°C
: 19°C
: 78%
: 1012 hPa
: Clear
Visibility: greater than 10 km
2024/07/21 20:30 BKPR 212030Z 34008KT CAVOK 23/19 Q1012 NOSIG
LGEL - Elefsis (hel-Afb, Greece
Distance from station: 284km
: 21/07/2024 23:20
Clear
Clear
   varies
: varies 4 km/h
: 30°C
Heat Index: 29°C
: 15°C
: 40%
: 1007 hPa
: Clear
Visibility: greater than 10 km
2024/07/21 20:20 LGEL 212020Z VRB02KT CAVOK 30/15 Q1007
 
LATI - Tirana, Albania
Distance from station: 291km
: 21/07/2024 23:20
Clear
Clear
   calm
:
: 24°C
: 22°C
: 89%
: 1009 hPa
: Clear
Visibility: greater than 10 km
2024/07/21 20:20 LATI 212020Z 00000KT CAVOK 24/22 Q1009 NOSIG
LGKR - Ioannis Kapodist, Greece
Distance from station: 292km
: 21/07/2024 23:20
Clear
Clear

: 7 km/h
: 29°C
Heat Index: 33°C
: 24°C
: 74%
: 1008 hPa
: Clear
Visibility: greater than 10 km
2024/07/21 20:20 LGKR 212020Z 22004KT CAVOK 29/24 Q1008 NOSIG